createdAt,value
2018-10-03T00:00:26.817Z,99.99
2018-10-03T00:01:26.795Z,99.99
2018-10-03T00:02:26.777Z,99.99
2018-10-03T00:03:26.759Z,99.99
2018-10-03T00:04:26.737Z,99.99
2018-10-03T00:05:26.720Z,99.99
2018-10-03T00:06:26.700Z,99.99
2018-10-03T00:07:26.671Z,99.99
2018-10-03T00:08:26.654Z,99.99
2018-10-03T00:09:26.633Z,99.99
2018-10-03T00:10:26.619Z,99.99
2018-10-03T00:11:26.595Z,99.99
2018-10-03T00:12:26.573Z,99.99
2018-10-03T00:13:26.554Z,99.99
2018-10-03T00:14:26.534Z,99.99
2018-10-03T00:15:26.510Z,99.99
2018-10-03T00:16:26.489Z,99.99
2018-10-03T00:17:26.473Z,99.99
2018-10-03T00:18:26.457Z,99.99
2018-10-03T00:19:26.435Z,99.99
2018-10-03T00:20:26.413Z,99.99
2018-10-03T00:21:26.390Z,99.99
2018-10-03T00:22:26.370Z,99.99
2018-10-03T00:23:26.486Z,99.99
2018-10-03T00:24:26.333Z,99.99
2018-10-03T00:25:26.307Z,99.99
2018-10-03T00:26:26.287Z,99.99
2018-10-03T00:27:26.269Z,99.99
2018-10-03T00:28:26.251Z,99.99
2018-10-03T00:29:26.229Z,99.99
2018-10-03T00:30:26.205Z,99.99
2018-10-03T00:31:26.196Z,99.99
2018-10-03T00:32:26.165Z,99.99
2018-10-03T00:33:26.149Z,99.99
2018-10-03T00:34:26.129Z,99.99
2018-10-03T00:35:26.107Z,99.99
2018-10-03T00:36:26.094Z,99.99
2018-10-03T00:37:26.075Z,99.99
2018-10-03T00:38:26.055Z,99.99
2018-10-03T00:39:26.027Z,99.99
2018-10-03T00:40:26.006Z,99.99
2018-10-03T00:41:25.990Z,99.99
2018-10-03T00:42:25.966Z,99.99
2018-10-03T00:43:25.947Z,99.99
2018-10-03T00:44:25.927Z,99.99
2018-10-03T00:45:25.904Z,99.99
2018-10-03T00:46:25.887Z,99.99
2018-10-03T00:47:25.863Z,99.99
2018-10-03T00:48:25.846Z,99.99
2018-10-03T00:49:25.825Z,99.99
2018-10-03T00:50:25.804Z,99.99
2018-10-03T00:51:25.783Z,99.99
2018-10-03T00:52:25.761Z,99.99
2018-10-03T00:53:25.741Z,99.99
2018-10-03T00:54:25.721Z,99.99
2018-10-03T00:55:25.700Z,99.99
2018-10-03T00:56:25.680Z,99.99
2018-10-03T00:57:25.674Z,99.99
2018-10-03T00:58:25.641Z,99.99
2018-10-03T00:59:25.627Z,99.99
2018-10-03T01:00:25.623Z,99.99
2018-10-03T01:01:25.583Z,99.99
2018-10-03T01:02:25.561Z,99.99
2018-10-03T01:03:25.545Z,99.99
2018-10-03T01:04:25.525Z,99.99
2018-10-03T01:05:25.499Z,99.99
2018-10-03T01:06:25.485Z,99.99
2018-10-03T01:07:25.457Z,99.99
2018-10-03T01:08:25.443Z,99.99
2018-10-03T01:09:25.417Z,99.99
2018-10-03T01:10:25.400Z,99.99
2018-10-03T01:11:25.373Z,99.99
2018-10-03T01:12:25.357Z,99.99
2018-10-03T01:13:25.335Z,99.99
2018-10-03T01:14:25.319Z,99.99
2018-10-03T01:15:25.300Z,99.99
2018-10-03T01:16:25.279Z,99.99
2018-10-03T01:17:25.254Z,99.99
2018-10-03T01:18:25.238Z,99.99
2018-10-03T01:19:25.218Z,99.99
2018-10-03T01:20:25.195Z,99.99
2018-10-03T01:21:25.172Z,99.99
2018-10-03T01:22:25.152Z,99.99
2018-10-03T01:23:25.134Z,99.99
2018-10-03T01:24:25.119Z,99.99
2018-10-03T01:25:25.092Z,99.99
2018-10-03T01:26:25.070Z,99.99
2018-10-03T01:27:25.055Z,99.99
2018-10-03T01:28:25.037Z,99.99
2018-10-03T01:29:25.018Z,99.99
2018-10-03T01:30:24.992Z,99.99
2018-10-03T01:31:24.971Z,99.99
2018-10-03T01:32:24.950Z,99.99
2018-10-03T01:33:24.925Z,99.99
2018-10-03T01:34:24.909Z,99.99
2018-10-03T01:35:24.890Z,99.99
2018-10-03T01:36:24.865Z,99.99
2018-10-03T01:37:24.850Z,99.99
2018-10-03T01:38:24.882Z,99.99
2018-10-03T01:39:24.808Z,99.99
2018-10-03T01:40:24.791Z,99.99
2018-10-03T01:41:24.768Z,99.99
2018-10-03T01:42:24.745Z,99.99
2018-10-03T01:43:24.728Z,99.99
2018-10-03T01:44:24.704Z,99.99
2018-10-03T01:45:24.687Z,99.99
2018-10-03T01:46:24.664Z,99.99
2018-10-03T01:47:24.646Z,99.99
2018-10-03T01:48:24.626Z,99.99
2018-10-03T01:49:24.602Z,99.99
2018-10-03T01:50:24.584Z,99.99
2018-10-03T01:51:24.561Z,99.99
2018-10-03T01:52:24.540Z,99.99
2018-10-03T01:53:24.523Z,99.99
2018-10-03T01:54:24.501Z,99.99
2018-10-03T01:55:24.478Z,99.99
2018-10-03T01:56:24.461Z,99.99
2018-10-03T01:57:24.446Z,99.99
2018-10-03T01:58:24.416Z,99.99
2018-10-03T01:59:24.398Z,99.99
2018-10-03T02:00:24.378Z,99.99
2018-10-03T02:01:24.354Z,99.99
2018-10-03T02:02:24.336Z,99.60
2018-10-03T02:03:24.316Z,99.99
2018-10-03T02:04:24.295Z,99.99
2018-10-03T02:05:24.276Z,99.99
2018-10-03T02:06:24.258Z,99.99
2018-10-03T02:07:24.239Z,99.99
2018-10-03T02:08:24.216Z,99.99
2018-10-03T02:09:24.192Z,99.99
2018-10-03T02:10:24.175Z,99.99
2018-10-03T02:11:24.151Z,99.99
2018-10-03T02:12:24.130Z,99.99
2018-10-03T02:13:24.115Z,99.99
2018-10-03T02:14:24.093Z,99.99
2018-10-03T02:15:24.068Z,99.99
2018-10-03T02:16:24.051Z,99.99
2018-10-03T02:17:24.029Z,99.99
2018-10-03T02:18:24.010Z,99.99
2018-10-03T02:19:23.987Z,99.99
2018-10-03T02:20:23.972Z,99.99
2018-10-03T02:21:23.947Z,99.99
2018-10-03T02:22:23.932Z,99.99
2018-10-03T02:23:23.906Z,99.99
2018-10-03T02:24:23.886Z,99.99
2018-10-03T02:25:23.867Z,99.99
2018-10-03T02:26:23.844Z,99.99
2018-10-03T02:27:23.826Z,99.99
2018-10-03T02:28:23.805Z,99.89
2018-10-03T02:29:23.780Z,99.99
2018-10-03T02:30:23.763Z,99.89
2018-10-03T02:31:23.740Z,99.99
2018-10-03T02:32:23.723Z,99.99
2018-10-03T02:33:23.702Z,99.99
2018-10-03T02:34:23.680Z,99.99
2018-10-03T02:35:23.662Z,99.99
2018-10-03T02:36:23.640Z,99.99
2018-10-03T02:37:23.627Z,99.99
2018-10-03T02:38:23.596Z,99.99
2018-10-03T02:39:23.577Z,99.99
2018-10-03T02:40:23.558Z,99.65
2018-10-03T02:41:23.533Z,99.99
2018-10-03T02:42:23.521Z,99.99
2018-10-03T02:43:23.492Z,99.99
2018-10-03T02:44:23.475Z,99.94
2018-10-03T02:45:23.454Z,99.99
2018-10-03T02:46:23.431Z,99.99
2018-10-03T02:47:23.416Z,99.99
2018-10-03T02:48:23.394Z,99.99
2018-10-03T02:49:23.373Z,99.37
2018-10-03T02:50:23.350Z,99.99
2018-10-03T02:51:23.328Z,99.99
2018-10-03T02:52:23.310Z,99.75
2018-10-03T02:53:23.291Z,99.99
2018-10-03T02:54:23.269Z,99.99
2018-10-03T02:55:23.254Z,99.18
2018-10-03T02:56:23.226Z,98.79
2018-10-03T02:57:23.208Z,98.60
2018-10-03T02:58:23.186Z,98.60
2018-10-03T02:59:23.167Z,99.37
2018-10-03T03:00:23.154Z,98.79
2018-10-03T03:01:23.126Z,99.84
2018-10-03T03:02:23.105Z,99.99
2018-10-03T03:03:23.086Z,99.99
2018-10-03T03:04:23.062Z,99.94
2018-10-03T03:05:23.042Z,98.41
2018-10-03T03:06:23.024Z,99.46
2018-10-03T03:07:23.003Z,99.99
2018-10-03T03:08:23.102Z,99.84
2018-10-03T03:09:22.964Z,99.99
2018-10-03T03:10:22.944Z,99.99
2018-10-03T03:11:22.922Z,99.99
2018-10-03T03:12:22.900Z,99.99
2018-10-03T03:13:22.876Z,99.99
2018-10-03T03:14:22.857Z,99.99
2018-10-03T03:15:22.836Z,98.99
2018-10-03T03:16:22.861Z,98.70
2018-10-03T03:17:22.799Z,98.89
2018-10-03T03:18:22.777Z,98.60
2018-10-03T03:19:22.756Z,97.89
2018-10-03T03:20:22.732Z,97.70
2018-10-03T03:21:22.720Z,98.08
2018-10-03T03:22:22.692Z,97.84
2018-10-03T03:23:22.674Z,97.75
2018-10-03T03:24:22.652Z,98.36
2018-10-03T03:25:22.632Z,99.04
2018-10-03T03:26:22.612Z,99.51
2018-10-03T03:27:22.587Z,97.51
2018-10-03T03:28:22.566Z,96.84
2018-10-03T03:29:22.548Z,96.08
2018-10-03T03:30:22.534Z,95.79
2018-10-03T03:31:22.510Z,95.32
2018-10-03T03:32:22.492Z,95.98
2018-10-03T03:33:22.467Z,95.22
2018-10-03T03:34:22.446Z,95.98
2018-10-03T03:35:22.425Z,95.61
2018-10-03T03:36:22.404Z,95.22
2018-10-03T03:37:22.384Z,95.61
2018-10-03T03:38:22.366Z,94.84
2018-10-03T03:39:22.342Z,95.98
2018-10-03T03:40:22.321Z,95.32
2018-10-03T03:41:22.298Z,94.56
2018-10-03T03:42:22.287Z,94.56
2018-10-03T03:43:22.260Z,95.22
2018-10-03T03:44:22.242Z,94.74
2018-10-03T03:45:22.211Z,94.93
2018-10-03T03:46:22.199Z,95.61
2018-10-03T03:47:22.185Z,95.98
2018-10-03T03:48:22.161Z,95.61
2018-10-03T03:49:22.142Z,94.74
2018-10-03T03:50:22.136Z,94.27
2018-10-03T03:51:22.096Z,94.08
2018-10-03T03:52:22.088Z,93.79
2018-10-03T03:53:22.059Z,93.79
2018-10-03T03:54:22.041Z,94.17
2018-10-03T03:55:22.012Z,94.46
2018-10-03T03:56:21.996Z,93.98
2018-10-03T03:57:21.980Z,93.41
2018-10-03T03:58:21.953Z,93.79
2018-10-03T03:59:21.938Z,93.41
2018-10-03T04:00:21.908Z,94.17
2018-10-03T04:01:21.892Z,94.17
2018-10-03T04:02:21.871Z,93.03
2018-10-03T04:03:21.856Z,93.51
2018-10-03T04:04:21.832Z,93.51
2018-10-03T04:05:21.817Z,92.84
2018-10-03T04:06:21.792Z,93.70
2018-10-03T04:07:21.770Z,93.41
2018-10-03T04:08:21.750Z,93.22
2018-10-03T04:09:21.730Z,93.41
2018-10-03T04:10:21.713Z,93.03
2018-10-03T04:11:21.686Z,92.27
2018-10-03T04:12:21.667Z,92.27
2018-10-03T04:13:21.643Z,92.65
2018-10-03T04:14:21.624Z,92.36
2018-10-03T04:15:21.609Z,92.55
2018-10-03T04:16:21.580Z,92.55
2018-10-03T04:17:21.562Z,91.69
2018-10-03T04:18:21.550Z,93.51
2018-10-03T04:19:21.520Z,93.03
2018-10-03T04:20:21.498Z,92.55
2018-10-03T04:21:21.482Z,93.22
2018-10-03T04:22:21.462Z,92.93
2018-10-03T04:23:21.443Z,92.74
2018-10-03T04:24:21.420Z,92.74
2018-10-03T04:25:21.400Z,91.50
2018-10-03T04:26:21.378Z,92.36
2018-10-03T04:27:21.360Z,92.65
2018-10-03T04:28:21.340Z,91.98
2018-10-03T04:29:21.321Z,92.46
2018-10-03T04:30:21.296Z,92.55
2018-10-03T04:31:21.275Z,91.88
2018-10-03T04:32:21.264Z,92.74
2018-10-03T04:33:21.237Z,93.32
2018-10-03T04:34:21.218Z,92.55
2018-10-03T04:35:21.198Z,92.74
2018-10-03T04:36:21.170Z,91.60
2018-10-03T04:37:21.154Z,91.98
2018-10-03T04:38:21.131Z,91.60
2018-10-03T04:39:21.113Z,91.50
2018-10-03T04:40:21.093Z,90.84
2018-10-03T04:41:21.069Z,92.36
2018-10-03T04:42:21.100Z,91.22
2018-10-03T04:43:21.031Z,91.50
2018-10-03T04:44:21.011Z,92.08
2018-10-03T04:45:20.992Z,91.79
2018-10-03T04:46:20.968Z,91.79
2018-10-03T04:47:20.949Z,91.31
2018-10-03T04:48:20.926Z,91.03
2018-10-03T04:49:20.912Z,90.93
2018-10-03T04:50:20.886Z,90.74
2018-10-03T04:51:20.871Z,90.93
2018-10-03T04:52:20.851Z,90.55
2018-10-03T04:53:20.825Z,91.69
2018-10-03T04:54:20.805Z,91.88
2018-10-03T04:55:20.782Z,90.93
2018-10-03T04:56:20.767Z,90.17
2018-10-03T04:57:20.749Z,90.55
2018-10-03T04:58:20.726Z,89.79
2018-10-03T04:59:20.705Z,89.98
2018-10-03T05:00:20.689Z,89.22
2018-10-03T05:01:20.667Z,89.98
2018-10-03T05:02:20.640Z,90.17
2018-10-03T05:03:20.621Z,89.79
2018-10-03T05:04:20.601Z,89.69
2018-10-03T05:05:20.583Z,90.36
2018-10-03T05:06:20.561Z,89.98
2018-10-03T05:07:20.542Z,90.26
2018-10-03T05:08:20.526Z,89.60
2018-10-03T05:09:20.498Z,88.74
2018-10-03T05:10:20.479Z,88.93
2018-10-03T05:11:20.485Z,88.74
2018-10-03T05:12:20.440Z,89.40
2018-10-03T05:13:20.416Z,89.22
2018-10-03T05:14:20.396Z,89.12
2018-10-03T05:15:20.379Z,89.60
2018-10-03T05:16:20.357Z,89.60
2018-10-03T05:17:20.335Z,88.93
2018-10-03T05:18:20.316Z,89.22
2018-10-03T05:19:20.300Z,89.22
2018-10-03T05:20:20.272Z,88.74
2018-10-03T05:21:20.252Z,88.07
2018-10-03T05:22:20.233Z,88.84
2018-10-03T05:23:20.212Z,89.22
2018-10-03T05:24:20.196Z,89.03
2018-10-03T05:25:20.171Z,88.84
2018-10-03T05:26:20.153Z,88.64
2018-10-03T05:27:20.134Z,89.03
2018-10-03T05:28:20.111Z,88.36
2018-10-03T05:29:20.090Z,89.60
2018-10-03T05:30:20.079Z,89.22
2018-10-03T05:31:20.057Z,88.74
2018-10-03T05:32:20.036Z,91.03
2018-10-03T05:33:20.042Z,92.93
2018-10-03T05:34:19.991Z,96.17
2018-10-03T05:35:19.971Z,95.98
2018-10-03T05:36:19.947Z,98.18
2018-10-03T05:37:19.925Z,99.51
2018-10-03T05:38:19.910Z,99.99
2018-10-03T05:39:19.889Z,99.18
2018-10-03T05:40:19.865Z,99.37
2018-10-03T05:41:19.849Z,99.99
2018-10-03T05:42:19.829Z,99.99
2018-10-03T05:43:19.805Z,99.99
2018-10-03T05:44:19.782Z,99.99
2018-10-03T05:45:19.764Z,99.99
2018-10-03T05:46:19.741Z,99.99
2018-10-03T05:47:19.725Z,99.99
2018-10-03T05:48:19.747Z,99.18
2018-10-03T05:49:19.681Z,99.99
2018-10-03T05:50:19.660Z,99.99
2018-10-03T05:51:19.647Z,99.99
2018-10-03T05:52:19.624Z,99.99
2018-10-03T05:53:19.601Z,99.99
2018-10-03T05:54:19.576Z,98.99
2018-10-03T05:55:19.555Z,99.55
2018-10-03T05:56:19.541Z,98.70
2018-10-03T05:57:19.524Z,99.75
2018-10-03T05:58:19.489Z,99.99
2018-10-03T05:59:19.474Z,99.99
2018-10-03T06:00:19.455Z,99.99
2018-10-03T06:01:19.436Z,99.99
2018-10-03T06:02:19.415Z,99.99
2018-10-03T06:03:19.394Z,99.84
2018-10-03T06:04:19.375Z,98.41
2018-10-03T06:05:19.355Z,98.13
2018-10-03T06:06:19.331Z,99.99
2018-10-03T06:07:19.312Z,99.84
2018-10-03T06:08:19.290Z,99.37
2018-10-03T06:09:19.269Z,98.60
2018-10-03T06:10:19.247Z,98.51
2018-10-03T06:11:19.231Z,97.46
2018-10-03T06:12:19.210Z,95.75
2018-10-03T06:13:19.191Z,96.70
2018-10-03T06:14:19.175Z,97.08
2018-10-03T06:15:19.143Z,96.89
2018-10-03T06:16:19.120Z,96.80
2018-10-03T06:17:19.103Z,95.98
2018-10-03T06:18:19.083Z,96.70
2018-10-03T06:19:19.063Z,96.94
2018-10-03T06:20:19.045Z,96.94
2018-10-03T06:21:19.021Z,96.36
2018-10-03T06:22:19.001Z,96.36
2018-10-03T06:23:18.979Z,95.32
2018-10-03T06:24:18.960Z,95.79
2018-10-03T06:25:18.936Z,94.74
2018-10-03T06:26:19.247Z,95.98
2018-10-03T06:27:18.899Z,96.08
2018-10-03T06:28:18.901Z,95.79
2018-10-03T06:29:18.858Z,94.27
2018-10-03T06:30:18.833Z,94.74
2018-10-03T06:31:18.816Z,93.98
2018-10-03T06:32:18.797Z,94.08
2018-10-03T06:33:18.803Z,94.17
2018-10-03T06:34:18.753Z,93.88
2018-10-03T06:35:18.728Z,93.79
2018-10-03T06:36:18.711Z,94.08
2018-10-03T06:37:18.694Z,93.51
2018-10-03T06:38:18.670Z,93.12
2018-10-03T06:39:18.680Z,92.84
2018-10-03T06:40:18.692Z,92.36
2018-10-03T06:41:18.606Z,93.03
2018-10-03T06:42:18.597Z,93.22
2018-10-03T06:43:18.567Z,93.51
2018-10-03T06:44:18.547Z,93.12
2018-10-03T06:45:18.525Z,91.98
2018-10-03T06:46:18.510Z,91.79
2018-10-03T06:47:18.487Z,90.93
2018-10-03T06:48:18.468Z,90.36
2018-10-03T06:49:18.453Z,91.07
2018-10-03T06:50:18.432Z,90.45
2018-10-03T06:51:18.404Z,89.93
2018-10-03T06:52:18.382Z,89.60
2018-10-03T06:53:18.361Z,90.12
2018-10-03T06:54:18.345Z,90.22
2018-10-03T06:55:18.322Z,91.07
2018-10-03T06:56:18.315Z,90.50
2018-10-03T06:57:18.280Z,90.22
2018-10-03T06:58:18.264Z,91.64
2018-10-03T06:59:18.240Z,90.12
2018-10-03T07:00:18.226Z,90.41
2018-10-03T07:01:18.198Z,90.12
2018-10-03T07:02:18.174Z,91.27
2018-10-03T07:03:18.160Z,91.93
2018-10-03T07:04:18.141Z,94.22
2018-10-03T07:05:18.117Z,95.08
2018-10-03T07:06:18.100Z,95.17
2018-10-03T07:07:18.078Z,96.75
2018-10-03T07:08:18.058Z,96.46
2018-10-03T07:09:18.039Z,98.08
2018-10-03T07:10:18.020Z,97.70
2018-10-03T07:11:17.996Z,98.36
2018-10-03T07:12:17.976Z,97.70
2018-10-03T07:13:17.954Z,97.51
2018-10-03T07:14:17.935Z,97.51
2018-10-03T07:15:17.919Z,98.36
2018-10-03T07:16:17.898Z,99.04
2018-10-03T07:17:17.870Z,98.08
2018-10-03T07:18:17.856Z,99.13
2018-10-03T07:19:17.839Z,99.04
2018-10-03T07:20:17.932Z,99.99
2018-10-03T07:21:17.791Z,99.99
2018-10-03T07:22:17.773Z,99.99
2018-10-03T07:23:17.753Z,99.99
2018-10-03T07:24:17.731Z,99.99
2018-10-03T07:25:17.711Z,99.99
2018-10-03T07:26:17.741Z,99.99
2018-10-03T07:27:17.675Z,99.99
2018-10-03T07:28:17.659Z,99.99
2018-10-03T07:29:17.633Z,99.99
2018-10-03T07:30:17.616Z,99.99
2018-10-03T07:31:17.590Z,99.99
2018-10-03T07:32:17.578Z,99.99
2018-10-03T07:33:17.553Z,99.70
2018-10-03T07:34:17.528Z,99.70
2018-10-03T07:35:17.514Z,97.51
2018-10-03T07:36:17.493Z,98.18
2018-10-03T07:37:17.474Z,97.22
2018-10-03T07:38:17.453Z,98.36
2018-10-03T07:39:17.483Z,98.56
2018-10-03T07:40:17.411Z,98.51
2018-10-03T07:41:17.408Z,95.65
2018-10-03T07:42:17.370Z,94.41
2018-10-03T07:43:17.351Z,94.32
2018-10-03T07:44:17.336Z,92.88
2018-10-03T07:45:17.310Z,93.27
2018-10-03T07:46:17.289Z,93.36
2018-10-03T07:47:17.270Z,92.41
2018-10-03T07:48:17.248Z,92.50
2018-10-03T07:49:17.228Z,92.60
2018-10-03T07:50:17.210Z,91.55
2018-10-03T07:51:17.188Z,91.27
2018-10-03T07:52:17.166Z,90.69
2018-10-03T07:53:17.153Z,90.83
2018-10-03T07:54:17.127Z,91.41
2018-10-03T07:55:17.107Z,89.69
2018-10-03T07:56:17.184Z,88.73
2018-10-03T07:57:17.108Z,89.31
2018-10-03T07:58:17.053Z,88.92
2018-10-03T07:59:17.029Z,87.49
2018-10-03T08:00:17.007Z,87.68
2018-10-03T08:01:16.994Z,88.26
2018-10-03T08:02:16.972Z,88.07
2018-10-03T08:03:16.948Z,87.49
2018-10-03T08:04:16.927Z,88.64
2018-10-03T08:05:16.916Z,88.16
2018-10-03T08:06:16.887Z,87.68
2018-10-03T08:07:16.869Z,88.54
2018-10-03T08:08:16.856Z,87.97
2018-10-03T08:09:16.835Z,86.20
2018-10-03T08:10:16.815Z,85.63
2018-10-03T08:11:16.788Z,84.96
2018-10-03T08:12:16.771Z,85.63
2018-10-03T08:13:16.757Z,85.72
2018-10-03T08:14:16.730Z,84.86
2018-10-03T08:15:16.718Z,84.48
2018-10-03T08:16:16.697Z,84.29
2018-10-03T08:17:16.690Z,85.53
2018-10-03T08:18:16.658Z,84.20
2018-10-03T08:19:16.636Z,82.95
2018-10-03T08:20:16.620Z,82.71
2018-10-03T08:21:16.599Z,82.52
2018-10-03T08:22:16.584Z,81.85
2018-10-03T08:23:16.558Z,81.76
2018-10-03T08:24:16.538Z,82.42
2018-10-03T08:25:16.520Z,81.95
2018-10-03T08:26:16.520Z,81.18
2018-10-03T08:27:16.485Z,81.18
2018-10-03T08:28:16.470Z,83.28
2018-10-03T08:29:16.441Z,80.61
2018-10-03T08:30:16.428Z,79.94
2018-10-03T08:31:16.410Z,80.41
2018-10-03T08:32:16.425Z,79.50
2018-10-03T08:33:16.417Z,78.41
2018-10-03T08:34:16.351Z,78.41
2018-10-03T08:35:16.340Z,79.36
2018-10-03T08:36:16.313Z,79.36
2018-10-03T08:37:16.296Z,79.75
2018-10-03T08:38:16.279Z,80.13
2018-10-03T08:39:16.258Z,79.50
2018-10-03T08:40:16.242Z,79.08
2018-10-03T08:41:16.231Z,78.70
2018-10-03T08:42:16.197Z,79.46
2018-10-03T08:43:16.187Z,79.46
2018-10-03T08:44:16.164Z,79.65
2018-10-03T08:45:16.144Z,79.08
2018-10-03T08:46:16.130Z,78.13
2018-10-03T08:47:16.114Z,78.74
2018-10-03T08:48:16.095Z,78.31
2018-10-03T08:49:16.075Z,78.31
2018-10-03T08:50:16.055Z,78.13
2018-10-03T08:51:16.033Z,78.83
2018-10-03T08:52:16.017Z,78.79
2018-10-03T08:53:15.995Z,78.03
2018-10-03T08:54:15.980Z,77.94
2018-10-03T08:55:15.965Z,78.99
2018-10-03T08:56:15.953Z,78.99
2018-10-03T08:57:15.929Z,79.17
2018-10-03T08:58:15.993Z,78.79
2018-10-03T08:59:15.891Z,78.89
2018-10-03T09:00:15.873Z,79.46
2018-10-03T09:01:15.861Z,78.51
2018-10-03T09:02:15.834Z,78.51
2018-10-03T09:03:15.816Z,78.03
2018-10-03T09:04:15.806Z,78.89
2018-10-03T09:05:15.775Z,78.93
2018-10-03T09:06:15.761Z,78.41
2018-10-03T09:07:15.746Z,78.13
2018-10-03T09:08:15.735Z,78.22
2018-10-03T09:09:15.707Z,77.17
2018-10-03T09:10:15.691Z,76.16
2018-10-03T09:11:15.670Z,75.24
2018-10-03T09:12:15.662Z,74.57
2018-10-03T09:13:15.632Z,74.48
2018-10-03T09:14:15.614Z,73.33
2018-10-03T09:15:15.603Z,73.17
2018-10-03T09:16:15.586Z,72.75
2018-10-03T09:17:15.562Z,72.94
2018-10-03T09:18:15.543Z,73.33
2018-10-03T09:19:15.524Z,73.33
2018-10-03T09:20:15.505Z,73.14
2018-10-03T09:21:15.561Z,73.52
2018-10-03T09:22:15.468Z,73.61
2018-10-03T09:23:15.454Z,74.28
2018-10-03T09:24:15.438Z,73.04
2018-10-03T09:25:15.420Z,74.09
2018-10-03T09:26:15.404Z,74.28
2018-10-03T09:27:15.380Z,73.23
2018-10-03T09:28:15.426Z,73.43
2018-10-03T09:29:15.347Z,73.52
2018-10-03T09:30:15.324Z,73.23
2018-10-03T09:31:15.316Z,72.08
2018-10-03T09:32:15.292Z,71.83
2018-10-03T09:33:15.282Z,70.34
2018-10-03T09:34:15.264Z,68.52
2018-10-03T09:35:15.240Z,66.74
2018-10-03T09:36:15.227Z,65.91
2018-10-03T09:37:15.204Z,64.76
2018-10-03T09:38:15.188Z,64.89
2018-10-03T09:39:15.172Z,62.96
2018-10-03T09:40:15.159Z,62.42
2018-10-03T09:41:15.146Z,62.84
2018-10-03T09:42:15.122Z,60.72
2018-10-03T09:43:15.102Z,60.25
2018-10-03T09:44:15.091Z,61.30
2018-10-03T09:45:15.072Z,60.35
2018-10-03T09:46:15.056Z,61.33
2018-10-03T09:47:15.040Z,60.82
2018-10-03T09:48:15.022Z,61.11
2018-10-03T09:49:15.003Z,62.52
2018-10-03T09:50:14.989Z,61.27
2018-10-03T09:51:14.973Z,63.09
2018-10-03T09:52:14.958Z,62.23
2018-10-03T09:53:14.944Z,62.23
2018-10-03T09:54:14.935Z,60.76
2018-10-03T09:55:14.923Z,60.47
2018-10-03T09:56:14.895Z,60.09
2018-10-03T09:57:14.878Z,61.24
2018-10-03T09:58:14.864Z,61.69
2018-10-03T09:59:14.854Z,62.84
2018-10-03T10:00:14.906Z,63.32
2018-10-03T10:01:14.818Z,63.99
2018-10-03T10:02:14.806Z,65.78
2018-10-03T10:03:14.786Z,67.98
2018-10-03T10:04:14.770Z,68.27
2018-10-03T10:05:14.756Z,68.84
2018-10-03T10:06:14.738Z,69.19
2018-10-03T10:07:14.728Z,69.57
2018-10-03T10:08:14.719Z,71.01
2018-10-03T10:09:14.694Z,69.19
2018-10-03T10:10:14.719Z,69.86
2018-10-03T10:11:14.763Z,69.29
2018-10-03T10:12:14.643Z,69.67
2018-10-03T10:13:14.646Z,68.80
2018-10-03T10:14:14.624Z,68.42
2018-10-03T10:15:14.598Z,68.23
2018-10-03T10:16:14.583Z,68.71
2018-10-03T10:17:14.567Z,67.21
2018-10-03T10:18:14.547Z,65.62
2018-10-03T10:19:14.543Z,64.69
2018-10-03T10:20:14.521Z,64.09
2018-10-03T10:21:14.500Z,61.18
2018-10-03T10:22:14.491Z,62.42
2018-10-03T10:23:14.469Z,60.92
2018-10-03T10:24:14.461Z,61.21
2018-10-03T10:25:14.448Z,58.45
2018-10-03T10:26:14.428Z,57.90
2018-10-03T10:27:14.413Z,58.10
2018-10-03T10:28:14.396Z,58.10
2018-10-03T10:29:14.381Z,58.39
2018-10-03T10:30:14.373Z,57.65
2018-10-03T10:31:14.361Z,57.65
2018-10-03T10:32:14.452Z,57.62
2018-10-03T10:33:14.432Z,57.81
2018-10-03T10:34:14.319Z,56.66
2018-10-03T10:35:14.301Z,58.45
2018-10-03T10:36:14.289Z,58.52
2018-10-03T10:37:14.282Z,60.63
2018-10-03T10:38:14.261Z,63.96
2018-10-03T10:39:14.249Z,65.97
2018-10-03T10:40:14.400Z,69.10
2018-10-03T10:41:14.329Z,69.01
2018-10-03T10:42:14.211Z,70.64
2018-10-03T10:43:14.212Z,67.28
2018-10-03T10:44:14.184Z,66.64
2018-10-03T10:45:14.168Z,64.28
2018-10-03T10:46:14.148Z,64.22
2018-10-03T10:47:14.133Z,62.96
2018-10-03T10:48:14.128Z,64.09
2018-10-03T10:49:14.108Z,62.74
2018-10-03T10:50:14.135Z,62.36
2018-10-03T10:51:14.078Z,61.49
2018-10-03T10:52:14.063Z,62.33
2018-10-03T10:53:14.051Z,61.94
2018-10-03T10:54:14.036Z,61.43
2018-10-03T10:55:14.023Z,62.59
2018-10-03T10:56:14.014Z,62.93
2018-10-03T10:57:14.001Z,64.85
2018-10-03T10:58:13.987Z,68.94
2018-10-03T10:59:13.969Z,72.06
2018-10-03T11:00:13.954Z,75.31
2018-10-03T11:01:13.941Z,78.24
2018-10-03T11:02:13.936Z,79.39
2018-10-03T11:03:13.909Z,79.68
2018-10-03T11:04:13.895Z,81.11
2018-10-03T11:05:13.879Z,79.29
2018-10-03T11:06:13.883Z,79.44
2018-10-03T11:07:13.851Z,79.64
2018-10-03T11:08:13.837Z,78.87
2018-10-03T11:09:13.824Z,78.87
2018-10-03T11:10:13.804Z,79.64
2018-10-03T11:11:13.787Z,79.16
2018-10-03T11:12:13.773Z,78.97
2018-10-03T11:13:13.759Z,80.50
2018-10-03T11:14:13.744Z,81.07
2018-10-03T11:15:13.729Z,81.41
2018-10-03T11:16:13.718Z,81.07
2018-10-03T11:17:13.699Z,78.28
2018-10-03T11:18:13.682Z,75.96
2018-10-03T11:19:13.670Z,73.26
2018-10-03T11:20:13.670Z,71.76
2018-10-03T11:21:13.635Z,67.51
2018-10-03T11:22:13.621Z,64.28
2018-10-03T11:23:13.613Z,63.09
2018-10-03T11:24:13.780Z,61.19
2018-10-03T11:25:13.580Z,59.88
2018-10-03T11:26:13.571Z,59.04
2018-10-03T11:27:13.559Z,57.72
2018-10-03T11:28:13.538Z,57.56
2018-10-03T11:29:13.531Z,55.76
2018-10-03T11:30:13.513Z,54.02
2018-10-03T11:31:13.501Z,52.76
2018-10-03T11:32:13.673Z,54.57
2018-10-03T11:33:13.477Z,54.64
2018-10-03T11:34:13.869Z,54.74
2018-10-03T11:35:13.452Z,55.92
2018-10-03T11:36:13.441Z,54.40
2018-10-03T11:37:13.434Z,52.81
2018-10-03T11:38:13.471Z,50.59
2018-10-03T11:39:13.409Z,49.55
2018-10-03T11:40:13.395Z,49.46
2018-10-03T11:41:13.388Z,48.52
2018-10-03T11:42:13.376Z,48.54
2018-10-03T11:43:13.365Z,48.37
2018-10-03T11:44:13.355Z,46.25
2018-10-03T11:45:13.347Z,46.83
2018-10-03T11:46:13.332Z,44.70
2018-10-03T11:47:13.331Z,44.50
2018-10-03T11:48:13.327Z,44.21
2018-10-03T11:49:13.313Z,44.33
2018-10-03T11:50:13.902Z,44.26
2018-10-03T11:51:13.293Z,42.80
2018-10-03T11:52:13.281Z,43.19
2018-10-03T11:53:13.282Z,43.87
2018-10-03T11:54:13.263Z,44.09
2018-10-03T11:55:13.257Z,43.46
2018-10-03T11:56:13.259Z,43.90
2018-10-03T11:57:13.278Z,44.75
2018-10-03T11:58:13.233Z,47.16
2018-10-03T11:59:13.225Z,46.51
2018-10-03T12:00:13.215Z,46.12
2018-10-03T12:01:13.207Z,46.73
2018-10-03T12:02:13.233Z,45.74
2018-10-03T12:03:13.214Z,46.56
2018-10-03T12:04:13.185Z,47.48
2018-10-03T12:05:13.191Z,48.88
2018-10-03T12:06:13.170Z,55.77
2018-10-03T12:07:13.165Z,60.24
2018-10-03T12:08:13.160Z,63.48
2018-10-03T12:09:13.171Z,64.60
2018-10-03T12:10:13.137Z,63.70
2018-10-03T12:11:13.135Z,67.41
2018-10-03T12:12:13.123Z,67.90
2018-10-03T12:13:13.165Z,76.34
2018-10-03T12:14:13.106Z,73.63
2018-10-03T12:15:13.096Z,71.42
2018-10-03T12:16:13.085Z,65.97
2018-10-03T12:17:13.080Z,64.92
2018-10-03T12:18:13.063Z,64.37
2018-10-03T12:19:13.057Z,63.22
2018-10-03T12:20:13.052Z,63.28
2018-10-03T12:21:13.033Z,61.16
2018-10-03T12:22:13.022Z,61.36
2018-10-03T12:23:13.024Z,59.15
2018-10-03T12:24:13.001Z,60.11
2018-10-03T12:25:13.030Z,58.47
2018-10-03T12:26:12.978Z,59.63
2018-10-03T12:27:12.967Z,62.71
2018-10-03T12:28:12.959Z,60.78
2018-10-03T12:29:12.951Z,59.92
2018-10-03T12:30:12.941Z,60.97
2018-10-03T12:31:12.920Z,59.82
2018-10-03T12:32:12.915Z,58.95
2018-10-03T12:33:12.911Z,58.86
2018-10-03T12:34:12.889Z,59.31
2018-10-03T12:35:12.879Z,58.57
2018-10-03T12:36:12.865Z,58.73
2018-10-03T12:37:12.856Z,59.79
2018-10-03T12:38:12.848Z,58.73
2018-10-03T12:39:12.841Z,57.48
2018-10-03T12:40:12.833Z,58.64
2018-10-03T12:41:12.803Z,58.70
2018-10-03T12:42:12.790Z,59.57
2018-10-03T12:43:12.781Z,58.70
2018-10-03T12:44:12.766Z,60.40
2018-10-03T12:45:12.855Z,60.31
2018-10-03T12:46:12.742Z,61.46
2018-10-03T12:47:12.730Z,62.39
2018-10-03T12:48:12.714Z,61.52
2018-10-03T12:49:12.712Z,60.08
2018-10-03T12:50:12.695Z,60.57
2018-10-03T12:51:12.683Z,60.75
2018-10-03T12:52:12.668Z,61.11